createdAt,value
2023-04-07T00:02:13.923Z,47.86
2023-04-07T00:04:41.473Z,47.94
2023-04-07T00:07:09.144Z,47.85
2023-04-07T00:09:37.055Z,47.98
2023-04-07T00:12:04.868Z,48.19
2023-04-07T00:14:32.374Z,47.77
2023-04-07T00:16:59.915Z,48.09
2023-04-07T00:19:27.420Z,48.32
2023-04-07T00:21:54.900Z,48.17
2023-04-07T00:24:33.371Z,48.41
2023-04-07T00:27:02.381Z,47.87
2023-04-07T00:29:30.442Z,48.38
2023-04-07T00:31:58.454Z,48.38
2023-04-07T00:34:26.468Z,48.07
2023-04-07T00:36:54.001Z,48.32
2023-04-07T00:39:22.005Z,48.62
2023-04-07T00:41:49.517Z,48.34
2023-04-07T00:44:17.231Z,48.72
2023-04-07T00:46:46.964Z,48.68
2023-04-07T00:49:17.709Z,48.74
2023-04-07T00:51:46.619Z,48.70
2023-04-07T00:54:14.830Z,48.58
2023-04-07T00:56:43.687Z,48.77
2023-04-07T00:59:11.615Z,48.64
2023-04-07T01:02:09.953Z,48.87
2023-04-07T01:05:09.046Z,48.70
2023-04-07T01:08:15.486Z,48.50
2023-04-07T01:10:53.119Z,48.83
2023-04-07T01:13:57.491Z,48.64
2023-04-07T01:16:52.469Z,48.36
2023-04-07T01:19:46.213Z,48.43
2023-04-07T01:22:22.112Z,48.92
2023-04-07T01:25:22.138Z,48.59
2023-04-07T01:28:01.893Z,48.96
2023-04-07T01:30:34.662Z,48.94
2023-04-07T01:33:04.064Z,49.15
2023-04-07T01:35:35.895Z,49.28
2023-04-07T01:38:04.978Z,48.87
2023-04-07T01:40:35.225Z,49.26
2023-04-07T01:43:03.560Z,49.37
2023-04-07T01:45:34.348Z,49.37
2023-04-07T01:48:02.957Z,49.34
2023-04-07T01:50:31.348Z,49.09
2023-04-07T01:52:59.487Z,49.19
2023-04-07T01:55:28.297Z,49.43
2023-04-07T01:58:07.198Z,49.60
2023-04-07T02:00:36.724Z,49.15
2023-04-07T02:03:22.979Z,49.41
2023-04-07T02:05:57.557Z,49.37
2023-04-07T02:08:31.891Z,48.98
2023-04-07T02:11:03.610Z,49.33
2023-04-07T02:13:35.340Z,48.96
2023-04-07T02:16:02.961Z,49.09
2023-04-07T02:18:32.375Z,48.80
2023-04-07T02:21:02.788Z,49.03
2023-04-07T02:23:30.632Z,49.20
2023-04-07T02:25:58.442Z,49.32
2023-04-07T02:28:26.022Z,49.18
2023-04-07T02:30:53.535Z,48.86
2023-04-07T02:33:21.229Z,49.30
2023-04-07T02:35:48.812Z,49.29
2023-04-07T02:38:16.368Z,48.91
2023-04-07T02:40:43.869Z,48.96
2023-04-07T02:43:11.461Z,49.12
2023-04-07T02:45:38.995Z,49.47
2023-04-07T02:48:06.602Z,49.45
2023-04-07T02:50:34.176Z,49.46
2023-04-07T02:53:01.694Z,49.48
2023-04-07T02:55:29.212Z,49.38
2023-04-07T02:57:56.838Z,49.08
2023-04-07T03:00:38.790Z,49.08
2023-04-07T03:03:12.569Z,49.29
2023-04-07T03:05:43.463Z,49.05
2023-04-07T03:08:13.168Z,49.53
2023-04-07T03:10:41.032Z,49.64
2023-04-07T03:13:09.818Z,49.32
2023-04-07T03:15:38.285Z,49.41
2023-04-07T03:18:06.990Z,49.19
2023-04-07T03:20:35.598Z,49.16
2023-04-07T03:23:09.098Z,49.30
2023-04-07T03:25:37.152Z,49.08
2023-04-07T03:28:05.114Z,49.19
2023-04-07T03:30:35.957Z,49.43
2023-04-07T03:33:03.851Z,49.09
2023-04-07T03:35:32.425Z,49.51
2023-04-07T03:37:59.977Z,49.16
2023-04-07T03:40:27.707Z,49.42
2023-04-07T03:42:55.290Z,49.19
2023-04-07T03:45:23.064Z,49.27
2023-04-07T03:47:54.259Z,49.24
2023-04-07T03:50:22.905Z,49.00
2023-04-07T03:53:11.413Z,49.25
2023-04-07T03:55:40.006Z,49.24
2023-04-07T03:58:15.409Z,48.96
2023-04-07T04:00:45.570Z,49.28
2023-04-07T04:03:13.561Z,49.42
2023-04-07T04:05:50.999Z,49.29
2023-04-07T04:08:23.043Z,49.35
2023-04-07T04:10:51.209Z,49.26
2023-04-07T04:13:19.586Z,49.44
2023-04-07T04:15:47.894Z,49.32
2023-04-07T04:18:18.029Z,49.55
2023-04-07T04:20:45.946Z,49.53
2023-04-07T04:23:13.470Z,49.44
2023-04-07T04:25:42.456Z,49.54
2023-04-07T04:28:12.504Z,49.40
2023-04-07T04:30:41.080Z,49.55
2023-04-07T04:33:10.338Z,49.63
2023-04-07T04:35:46.351Z,49.13
2023-04-07T04:38:17.438Z,49.57
2023-04-07T04:40:52.782Z,49.40
2023-04-07T04:43:26.061Z,49.31
2023-04-07T04:45:53.947Z,49.30
2023-04-07T04:48:25.112Z,49.26
2023-04-07T04:50:52.624Z,49.72
2023-04-07T04:53:21.650Z,49.30
2023-04-07T04:56:00.928Z,49.63
2023-04-07T04:58:40.281Z,49.80
2023-04-07T05:01:08.682Z,49.54
2023-04-07T05:03:41.786Z,49.69
2023-04-07T05:06:21.606Z,49.75
2023-04-07T05:08:51.497Z,49.81
2023-04-07T05:11:23.028Z,49.47
2023-04-07T05:13:53.739Z,49.59
2023-04-07T05:16:21.543Z,49.86
2023-04-07T05:18:49.051Z,49.81
2023-04-07T05:21:17.544Z,49.71
2023-04-07T05:23:45.469Z,49.83
2023-04-07T05:26:13.661Z,49.60
2023-04-07T05:28:43.674Z,49.71
2023-04-07T05:31:17.093Z,49.61
2023-04-07T05:33:47.604Z,49.94
2023-04-07T05:36:16.435Z,50.20
2023-04-07T05:38:44.156Z,49.86
2023-04-07T05:41:15.515Z,49.94
2023-04-07T05:43:43.050Z,50.02
2023-04-07T05:46:10.871Z,49.99
2023-04-07T05:48:47.337Z,49.96
2023-04-07T05:51:15.672Z,50.10
2023-04-07T05:53:44.015Z,49.77
2023-04-07T05:56:11.754Z,49.96
2023-04-07T05:58:44.501Z,49.58
2023-04-07T06:01:13.278Z,49.89
2023-04-07T06:03:41.176Z,49.71
2023-04-07T06:06:15.943Z,50.06
2023-04-07T06:08:43.585Z,49.88
2023-04-07T06:11:13.074Z,50.01
2023-04-07T06:13:40.866Z,50.33
2023-04-07T06:16:09.587Z,49.71
2023-04-07T06:18:38.426Z,49.93
2023-04-07T06:21:07.482Z,50.22
2023-04-07T06:23:35.068Z,49.47
2023-04-07T06:26:02.761Z,49.51
2023-04-07T06:28:30.851Z,49.73
2023-04-07T06:31:00.053Z,49.52
2023-04-07T06:33:28.530Z,49.70
2023-04-07T06:35:57.510Z,49.82
2023-04-07T06:38:25.261Z,50.25
2023-04-07T06:40:52.777Z,49.85
2023-04-07T06:43:20.305Z,50.23
2023-04-07T06:45:56.506Z,50.06
2023-04-07T06:48:24.168Z,50.28
2023-04-07T06:50:52.159Z,49.85
2023-04-07T06:53:19.646Z,50.16
2023-04-07T06:55:47.144Z,50.01
2023-04-07T06:58:14.681Z,49.84
2023-04-07T07:00:42.176Z,50.05
2023-04-07T07:03:09.795Z,49.80
2023-04-07T07:05:37.573Z,49.95
2023-04-07T07:08:05.063Z,49.99
2023-04-07T07:10:32.560Z,49.61
2023-04-07T07:13:00.246Z,49.70
2023-04-07T07:15:27.741Z,49.58
2023-04-07T07:17:55.442Z,49.65
2023-04-07T07:20:23.534Z,49.93
2023-04-07T07:22:51.027Z,49.45
2023-04-07T07:25:18.565Z,49.18
2023-04-07T07:27:46.157Z,49.30
2023-04-07T07:30:13.845Z,49.35
2023-04-07T07:32:41.420Z,49.50
2023-04-07T07:35:09.025Z,49.15
2023-04-07T07:37:36.544Z,49.46
2023-04-07T07:40:04.386Z,49.04
2023-04-07T07:42:32.158Z,48.78
2023-04-07T07:44:59.836Z,48.61
2023-04-07T07:47:27.550Z,48.74
2023-04-07T07:49:55.210Z,49.14
2023-04-07T07:52:22.787Z,48.92
2023-04-07T07:54:51.299Z,49.17
2023-04-07T07:57:18.892Z,48.79
2023-04-07T07:59:46.622Z,49.04
2023-04-07T08:02:14.284Z,49.09
2023-04-07T08:04:41.931Z,49.38
2023-04-07T08:07:09.516Z,49.10
2023-04-07T08:09:37.045Z,49.04
2023-04-07T08:12:04.823Z,49.34
2023-04-07T08:14:32.424Z,49.59
2023-04-07T08:16:59.917Z,49.98
2023-04-07T08:19:27.439Z,49.93
2023-04-07T08:21:54.916Z,49.71
2023-04-07T08:24:22.430Z,49.97
2023-04-07T08:26:49.908Z,50.54
2023-04-07T08:29:17.405Z,50.03
2023-04-07T08:31:44.925Z,49.70
2023-04-07T08:34:13.633Z,49.72
2023-04-07T08:36:43.550Z,49.66
2023-04-07T08:39:11.562Z,49.91
2023-04-07T08:41:44.580Z,50.25
2023-04-07T08:44:14.996Z,50.46
2023-04-07T08:46:44.680Z,50.55
2023-04-07T08:49:14.048Z,50.63
2023-04-07T08:51:48.248Z,50.23
2023-04-07T08:54:18.932Z,49.59
2023-04-07T08:56:46.713Z,49.03
2023-04-07T08:59:18.188Z,49.12
2023-04-07T09:01:47.239Z,48.69
2023-04-07T09:04:15.069Z,48.96
2023-04-07T09:06:43.575Z,49.15
2023-04-07T09:09:11.415Z,49.01
2023-04-07T09:11:41.004Z,49.41
2023-04-07T09:14:08.561Z,49.08
2023-04-07T09:16:36.414Z,48.84
2023-04-07T09:19:04.078Z,48.69
2023-04-07T09:21:52.262Z,48.80
2023-04-07T09:24:28.490Z,48.56
2023-04-07T09:27:13.963Z,48.01
2023-04-07T09:29:45.259Z,47.97
2023-04-07T09:32:14.080Z,47.77
2023-04-07T09:34:41.997Z,47.24
2023-04-07T09:37:22.836Z,46.98
2023-04-07T09:39:53.774Z,46.99
2023-04-07T09:42:21.579Z,46.94
2023-04-07T09:44:49.196Z,46.45
2023-04-07T09:47:17.944Z,46.38
2023-04-07T09:49:53.993Z,46.21
2023-04-07T09:52:46.425Z,46.06
2023-04-07T09:55:15.911Z,45.26
2023-04-07T09:57:45.336Z,45.84
2023-04-07T10:00:13.819Z,45.68
2023-04-07T10:02:43.217Z,45.73
2023-04-07T10:05:11.259Z,45.60
2023-04-07T10:07:40.899Z,45.81
2023-04-07T10:10:10.428Z,45.56
2023-04-07T10:12:38.451Z,45.04
2023-04-07T10:15:07.221Z,44.60
2023-04-07T10:17:37.896Z,44.55
2023-04-07T10:20:09.902Z,45.00
2023-04-07T10:22:41.315Z,44.46
2023-04-07T10:25:12.570Z,44.33
2023-04-07T10:27:56.400Z,43.67
2023-04-07T10:30:34.492Z,44.11
2023-04-07T10:33:02.407Z,44.18
2023-04-07T10:36:07.343Z,44.96
2023-04-07T10:38:34.953Z,43.80
2023-04-07T10:41:41.447Z,43.91
2023-04-07T10:44:40.699Z,44.45
2023-04-07T10:47:08.585Z,44.89
2023-04-07T10:49:36.752Z,44.88
2023-04-07T10:52:13.081Z,44.90
2023-04-07T10:54:41.419Z,45.82
2023-04-07T10:57:14.359Z,46.32
2023-04-07T11:00:12.115Z,46.39
2023-04-07T11:02:41.298Z,46.72
2023-04-07T11:05:19.442Z,47.01
2023-04-07T11:07:51.073Z,47.14
2023-04-07T11:10:19.474Z,46.90
2023-04-07T11:13:08.223Z,47.41
2023-04-07T11:15:40.414Z,47.39
2023-04-07T11:18:18.444Z,47.20
2023-04-07T11:20:56.281Z,46.60
2023-04-07T11:23:25.431Z,46.27
2023-04-07T11:26:03.613Z,46.20
2023-04-07T11:28:32.135Z,45.77
2023-04-07T11:31:00.249Z,45.47
2023-04-07T11:33:31.637Z,45.01
2023-04-07T11:36:02.141Z,45.07
2023-04-07T11:38:36.443Z,44.76
2023-04-07T11:41:13.429Z,44.50
2023-04-07T11:43:41.953Z,44.07
2023-04-07T11:46:16.595Z,44.28
2023-04-07T11:48:45.781Z,43.98
2023-04-07T11:51:17.612Z,44.15
2023-04-07T11:53:46.150Z,44.32
2023-04-07T11:56:17.411Z,44.31
2023-04-07T11:58:53.227Z,43.91
2023-04-07T12:01:24.621Z,44.24
2023-04-07T12:04:04.366Z,44.51
2023-04-07T12:06:38.508Z,44.57
2023-04-07T12:09:06.298Z,44.87
2023-04-07T12:11:35.857Z,44.80
2023-04-07T12:14:05.113Z,44.78
2023-04-07T12:16:37.542Z,45.04
2023-04-07T12:19:05.360Z,44.94
2023-04-07T12:21:33.193Z,44.86
2023-04-07T12:24:01.032Z,44.53
2023-04-07T12:26:29.854Z,44.80
2023-04-07T12:28:58.831Z,44.54
2023-04-07T12:31:26.370Z,44.57
2023-04-07T12:33:53.906Z,44.95
2023-04-07T12:36:21.402Z,45.22
2023-04-07T12:38:48.886Z,45.19
2023-04-07T12:41:16.608Z,45.02
2023-04-07T12:43:44.999Z,45.09
2023-04-07T12:46:14.368Z,45.45
2023-04-07T12:48:41.944Z,45.52
2023-04-07T12:51:09.625Z,45.29
2023-04-07T12:53:37.309Z,45.68
2023-04-07T12:56:04.974Z,45.81
2023-04-07T12:58:33.129Z,45.56
2023-04-07T13:01:00.758Z,45.52
2023-04-07T13:03:28.604Z,45.51
2023-04-07T13:05:56.348Z,45.32
2023-04-07T13:08:23.857Z,45.42
2023-04-07T13:10:51.418Z,45.71
2023-04-07T13:13:18.929Z,45.88
2023-04-07T13:15:46.450Z,46.08
2023-04-07T13:18:14.218Z,46.54
2023-04-07T13:20:41.747Z,46.90
2023-04-07T13:23:10.243Z,47.01
2023-04-07T13:25:38.193Z,47.10
2023-04-07T13:28:05.866Z,47.09
2023-04-07T13:30:33.498Z,46.94
2023-04-07T13:33:01.389Z,47.39
2023-04-07T13:35:30.945Z,47.06
2023-04-07T13:37:58.465Z,47.24
2023-04-07T13:40:25.974Z,47.42
2023-04-07T13:42:53.523Z,47.58
2023-04-07T13:45:20.989Z,47.50
2023-04-07T13:47:48.581Z,47.47
2023-04-07T13:50:16.287Z,47.21
2023-04-07T13:52:43.899Z,47.09
2023-04-07T13:55:11.953Z,47.05
2023-04-07T13:57:39.458Z,47.09
2023-04-07T14:00:07.893Z,47.03
2023-04-07T14:02:36.546Z,46.97
2023-04-07T14:05:04.561Z,47.17
2023-04-07T14:07:32.075Z,46.92
2023-04-07T14:09:59.613Z,46.80
2023-04-07T14:12:27.377Z,46.54
2023-04-07T14:14:54.924Z,46.52
2023-04-07T14:17:22.605Z,46.37
2023-04-07T14:19:50.106Z,46.13
2023-04-07T14:22:18.238Z,45.73
2023-04-07T14:24:45.804Z,45.67
2023-04-07T14:27:14.119Z,45.28
2023-04-07T14:29:41.661Z,45.16
2023-04-07T14:32:09.218Z,44.85
2023-04-07T14:34:36.715Z,44.73
2023-04-07T14:37:04.235Z,44.88
2023-04-07T14:39:31.788Z,44.50
2023-04-07T14:42:00.570Z,44.66
2023-04-07T14:44:29.063Z,44.64
2023-04-07T14:46:56.603Z,44.54
2023-04-07T14:49:25.843Z,44.49
2023-04-07T14:51:53.415Z,44.39
2023-04-07T14:54:21.605Z,44.42
2023-04-07T14:56:49.527Z,44.60
2023-04-07T14:59:17.167Z,44.76
2023-04-07T15:01:44.690Z,44.55
2023-04-07T15:04:13.431Z,44.43
2023-04-07T15:06:42.741Z,44.06
2023-04-07T15:09:10.274Z,44.22
2023-04-07T15:11:37.799Z,44.25
2023-04-07T15:14:06.573Z,44.25
2023-04-07T15:16:34.280Z,44.52
2023-04-07T15:19:01.918Z,44.40
2023-04-07T15:21:29.704Z,44.36
2023-04-07T15:23:57.247Z,44.10
2023-04-07T15:26:24.814Z,44.35
2023-04-07T15:28:52.295Z,44.31
2023-04-07T15:31:21.370Z,44.59
2023-04-07T15:33:49.038Z,45.08
2023-04-07T15:36:16.648Z,44.58
2023-04-07T15:38:44.160Z,44.11
2023-04-07T15:41:16.411Z,44.08
2023-04-07T15:43:44.005Z,43.22
2023-04-07T15:46:11.576Z,42.84
2023-04-07T15:48:39.090Z,42.65
2023-04-07T15:51:06.594Z,42.74
2023-04-07T15:53:34.546Z,42.64
2023-04-07T15:56:02.059Z,42.17
2023-04-07T15:58:31.104Z,42.20
2023-04-07T16:00:59.706Z,42.52
2023-04-07T16:03:28.215Z,42.28
2023-04-07T16:05:56.008Z,42.26
2023-04-07T16:08:23.662Z,41.46
2023-04-07T16:10:51.189Z,41.98
2023-04-07T16:13:18.678Z,42.39
2023-04-07T16:15:46.208Z,40.87
2023-04-07T16:18:13.723Z,41.27
2023-04-07T16:20:41.196Z,41.48
2023-04-07T16:23:09.376Z,41.14
2023-04-07T16:25:36.874Z,41.02
2023-04-07T16:28:04.499Z,41.21
2023-04-07T16:30:32.096Z,41.64
2023-04-07T16:33:00.513Z,41.51
2023-04-07T16:35:29.151Z,42.07
2023-04-07T16:38:01.430Z,42.25
2023-04-07T16:40:28.901Z,42.62
2023-04-07T16:42:56.392Z,43.17
2023-04-07T16:45:23.861Z,43.56
2023-04-07T16:47:51.523Z,43.70
2023-04-07T16:50:19.142Z,43.92
2023-04-07T16:52:47.648Z,44.07
2023-04-07T16:55:15.162Z,44.23
2023-04-07T16:57:42.736Z,44.50
2023-04-07T17:00:11.001Z,44.89
2023-04-07T17:02:38.618Z,44.93
2023-04-07T17:05:06.941Z,45.00
2023-04-07T17:07:34.432Z,45.21
2023-04-07T17:10:02.081Z,45.48
2023-04-07T17:12:29.732Z,45.43
2023-04-07T17:14:57.212Z,45.51
2023-04-07T17:17:24.898Z,46.24
2023-04-07T17:19:52.472Z,46.00
2023-04-07T17:22:20.031Z,46.16
2023-04-07T17:24:47.840Z,46.61
2023-04-07T17:27:15.465Z,46.88
2023-04-07T17:29:42.939Z,46.83
2023-04-07T17:32:10.432Z,46.93
2023-04-07T17:34:37.966Z,47.09
2023-04-07T17:37:05.638Z,46.77
2023-04-07T17:39:33.174Z,46.81
2023-04-07T17:42:00.733Z,46.79
2023-04-07T17:44:28.244Z,46.56
2023-04-07T17:46:55.819Z,46.55
2023-04-07T17:49:24.454Z,46.98
2023-04-07T17:51:51.947Z,47.34
2023-04-07T17:54:19.736Z,47.87
2023-04-07T17:56:47.202Z,48.31
2023-04-07T17:59:14.697Z,48.68
2023-04-07T18:01:42.639Z,48.90
2023-04-07T18:04:10.326Z,48.88
2023-04-07T18:06:37.829Z,49.40
2023-04-07T18:09:05.330Z,49.71
2023-04-07T18:11:32.832Z,50.13
2023-04-07T18:14:00.774Z,50.15
2023-04-07T18:16:28.357Z,50.06
2023-04-07T18:18:56.735Z,50.72
2023-04-07T18:21:24.224Z,50.39
2023-04-07T18:23:51.728Z,50.56
2023-04-07T18:26:19.197Z,50.34
2023-04-07T18:28:46.701Z,50.58
2023-04-07T18:31:15.217Z,50.75
2023-04-07T18:33:42.719Z,51.13
2023-04-07T18:36:11.698Z,51.03
2023-04-07T18:38:39.225Z,50.75
2023-04-07T18:41:07.260Z,51.26
2023-04-07T18:43:35.227Z,51.54
2023-04-07T18:46:03.002Z,51.45
2023-04-07T18:48:30.586Z,51.52
2023-04-07T18:50:58.080Z,51.75
2023-04-07T18:53:25.811Z,52.01
2023-04-07T18:55:53.382Z,51.61
2023-04-07T18:58:21.181Z,51.71
2023-04-07T19:00:50.131Z,51.66
2023-04-07T19:03:17.824Z,51.56
2023-04-07T19:05:47.504Z,51.64
2023-04-07T19:08:16.227Z,51.41
2023-04-07T19:10:43.948Z,51.96
2023-04-07T19:13:11.449Z,51.73
2023-04-07T19:15:40.607Z,52.13
2023-04-07T19:18:08.317Z,52.64
2023-04-07T19:20:36.165Z,52.39
2023-04-07T19:23:03.705Z,52.36
2023-04-07T19:25:31.489Z,52.60
2023-04-07T19:27:59.175Z,52.58
2023-04-07T19:30:27.074Z,52.32
2023-04-07T19:32:55.157Z,52.97
2023-04-07T19:35:22.760Z,53.08
2023-04-07T19:37:51.881Z,52.32
2023-04-07T19:40:19.660Z,52.89
2023-04-07T19:42:47.175Z,53.05
2023-04-07T19:45:14.709Z,53.06
2023-04-07T19:47:43.385Z,53.43
2023-04-07T19:50:11.782Z,52.87
2023-04-07T19:52:39.322Z,53.08
2023-04-07T19:55:09.558Z,53.06
2023-04-07T19:57:40.172Z,53.27
2023-04-07T20:00:09.039Z,53.72
2023-04-07T20:02:37.263Z,53.69
2023-04-07T20:05:05.490Z,53.64
2023-04-07T20:07:33.561Z,53.44
2023-04-07T20:10:01.287Z,53.94
2023-04-07T20:12:28.852Z,53.61
2023-04-07T20:14:56.397Z,53.96
2023-04-07T20:17:23.900Z,53.85
2023-04-07T20:19:54.895Z,53.76
2023-04-07T20:22:22.825Z,53.81
2023-04-07T20:24:50.393Z,53.75
2023-04-07T20:27:18.340Z,53.49
2023-04-07T20:29:45.835Z,53.63
2023-04-07T20:32:13.329Z,53.93
2023-04-07T20:34:43.050Z,53.48
2023-04-07T20:37:10.623Z,53.69
2023-04-07T20:39:38.350Z,53.54
2023-04-07T20:42:05.855Z,53.50
2023-04-07T20:44:33.337Z,53.86
2023-04-07T20:47:11.400Z,53.61
2023-04-07T20:49:41.002Z,53.88
2023-04-07T20:52:08.932Z,53.80
2023-04-07T20:54:36.506Z,54.21
2023-04-07T20:57:04.018Z,53.93
2023-04-07T20:59:32.555Z,53.95
2023-04-07T21:02:00.196Z,53.91
2023-04-07T21:04:28.334Z,53.55
2023-04-07T21:06:55.861Z,53.95
2023-04-07T21:09:23.328Z,53.76
2023-04-07T21:11:50.919Z,53.94
2023-04-07T21:14:18.397Z,54.00
2023-04-07T21:16:45.889Z,54.04
2023-04-07T21:19:13.353Z,53.73
2023-04-07T21:21:41.067Z,53.98
2023-04-07T21:24:08.600Z,53.81
2023-04-07T21:26:36.104Z,54.00
2023-04-07T21:29:03.684Z,54.00
2023-04-07T21:31:32.360Z,53.96
2023-04-07T21:34:00.023Z,54.36
2023-04-07T21:36:27.684Z,54.71
2023-04-07T21:38:55.214Z,54.19
2023-04-07T21:41:22.707Z,54.17
2023-04-07T21:43:50.254Z,54.63
2023-04-07T21:46:17.907Z,54.20
2023-04-07T21:48:45.656Z,54.07
2023-04-07T21:51:13.143Z,54.41
2023-04-07T21:53:40.877Z,54.43
2023-04-07T21:56:09.302Z,54.37
2023-04-07T21:58:37.377Z,54.06
2023-04-07T22:01:04.957Z,54.18
2023-04-07T22:03:32.694Z,53.99
2023-04-07T22:06:01.031Z,54.25
2023-04-07T22:08:28.583Z,54.30
2023-04-07T22:10:56.685Z,55.04
2023-04-07T22:13:24.707Z,54.85
2023-04-07T22:15:52.275Z,54.58
2023-04-07T22:18:21.439Z,55.00
2023-04-07T22:20:49.606Z,55.07
2023-04-07T22:23:17.134Z,55.19
2023-04-07T22:25:44.643Z,55.15
2023-04-07T22:28:12.257Z,55.32
2023-04-07T22:30:39.722Z,55.24
2023-04-07T22:33:08.989Z,54.89
2023-04-07T22:35:38.301Z,55.37
2023-04-07T22:38:06.073Z,55.62
2023-04-07T22:40:33.562Z,55.53
2023-04-07T22:43:01.364Z,55.51
2023-04-07T22:45:29.218Z,55.44
2023-04-07T22:47:56.809Z,55.47
2023-04-07T22:50:24.366Z,55.75
2023-04-07T22:52:51.849Z,55.41
2023-04-07T22:55:19.739Z,55.47
2023-04-07T22:57:47.434Z,55.33
2023-04-07T23:00:15.480Z,55.57
2023-04-07T23:02:43.210Z,55.83
2023-04-07T23:05:11.089Z,55.45
2023-04-07T23:07:38.688Z,55.89
2023-04-07T23:10:07.925Z,55.58
2023-04-07T23:12:36.092Z,55.91
2023-04-07T23:15:04.160Z,55.31
2023-04-07T23:17:31.795Z,55.39
2023-04-07T23:19:59.272Z,55.42
2023-04-07T23:22:26.998Z,55.87
2023-04-07T23:24:54.822Z,55.47
2023-04-07T23:27:22.346Z,55.46
2023-04-07T23:29:51.617Z,55.61
2023-04-07T23:32:19.140Z,55.38
2023-04-07T23:34:46.643Z,55.78
2023-04-07T23:37:14.165Z,55.64
2023-04-07T23:39:41.671Z,55.57
2023-04-07T23:42:09.239Z,55.91
2023-04-07T23:44:36.820Z,55.79
2023-04-07T23:47:04.337Z,55.89
2023-04-07T23:49:32.039Z,55.78
2023-04-07T23:51:59.563Z,55.47
2023-04-07T23:54:27.136Z,55.56
2023-04-07T23:56:54.672Z,55.54
2023-04-07T23:59:22.134Z,55.49
